sensor_id;sensor_type;location;lat;lon;timestamp;P1;durP1;ratioP1;P2;durP2;ratioP2
71351;SDS011;59159;51.652;4.864;2022-11-20T00:01:23;6.75;;;2.58;;
71351;SDS011;59159;51.652;4.864;2022-11-20T00:03:50;6.10;;;2.80;;
71351;SDS011;59159;51.652;4.864;2022-11-20T00:06:17;7.37;;;2.97;;
71351;SDS011;59159;51.652;4.864;2022-11-20T00:08:43;7.47;;;2.80;;
71351;SDS011;59159;51.652;4.864;2022-11-20T00:11:11;7.00;;;3.10;;
71351;SDS011;59159;51.652;4.864;2022-11-20T00:13:37;6.70;;;2.73;;
71351;SDS011;59159;51.652;4.864;2022-11-20T00:16:04;6.57;;;2.60;;
71351;SDS011;59159;51.652;4.864;2022-11-20T00:18:32;7.93;;;3.42;;
71351;SDS011;59159;51.652;4.864;2022-11-20T00:21:02;7.53;;;2.80;;
71351;SDS011;59159;51.652;4.864;2022-11-20T00:23:28;7.77;;;3.10;;
71351;SDS011;59159;51.652;4.864;2022-11-20T00:25:54;7.40;;;3.17;;
71351;SDS011;59159;51.652;4.864;2022-11-20T00:28:20;7.60;;;2.95;;
71351;SDS011;59159;51.652;4.864;2022-11-20T00:30:46;7.27;;;2.67;;
71351;SDS011;59159;51.652;4.864;2022-11-20T00:33:12;6.55;;;2.70;;
71351;SDS011;59159;51.652;4.864;2022-11-20T00:35:38;6.43;;;2.50;;
71351;SDS011;59159;51.652;4.864;2022-11-20T00:38:04;7.57;;;2.80;;
71351;SDS011;59159;51.652;4.864;2022-11-20T00:40:29;7.80;;;3.00;;
71351;SDS011;59159;51.652;4.864;2022-11-20T00:42:55;5.53;;;2.45;;
71351;SDS011;59159;51.652;4.864;2022-11-20T00:45:21;6.95;;;2.85;;
71351;SDS011;59159;51.652;4.864;2022-11-20T00:47:47;7.27;;;2.60;;
71351;SDS011;59159;51.652;4.864;2022-11-20T00:50:13;6.72;;;2.90;;
71351;SDS011;59159;51.652;4.864;2022-11-20T00:52:39;6.78;;;2.83;;
71351;SDS011;59159;51.652;4.864;2022-11-20T00:55:05;7.10;;;3.10;;
71351;SDS011;59159;51.652;4.864;2022-11-20T00:57:32;6.57;;;2.95;;
71351;SDS011;59159;51.652;4.864;2022-11-20T00:59:57;6.63;;;3.05;;
71351;SDS011;59159;51.652;4.864;2022-11-20T01:02:23;6.87;;;2.83;;
71351;SDS011;59159;51.652;4.864;2022-11-20T01:04:49;7.03;;;3.08;;
71351;SDS011;59159;51.652;4.864;2022-11-20T01:07:15;6.55;;;2.70;;
71351;SDS011;59159;51.652;4.864;2022-11-20T01:09:41;6.57;;;2.95;;
71351;SDS011;59159;51.652;4.864;2022-11-20T01:12:09;7.70;;;2.93;;
71351;SDS011;59159;51.652;4.864;2022-11-20T01:14:34;7.32;;;3.00;;
71351;SDS011;59159;51.652;4.864;2022-11-20T01:17:00;7.60;;;3.22;;
71351;SDS011;59159;51.652;4.864;2022-11-20T01:19:26;7.17;;;2.90;;
71351;SDS011;59159;51.652;4.864;2022-11-20T01:21:53;7.82;;;3.40;;
71351;SDS011;59159;51.652;4.864;2022-11-20T01:24:20;7.20;;;2.38;;
71351;SDS011;59159;51.652;4.864;2022-11-20T01:26:47;6.77;;;3.60;;
71351;SDS011;59159;51.652;4.864;2022-11-20T01:29:15;7.38;;;3.00;;
71351;SDS011;59159;51.652;4.864;2022-11-20T01:31:41;7.07;;;2.80;;
71351;SDS011;59159;51.652;4.864;2022-11-20T01:34:09;7.43;;;3.00;;
71351;SDS011;59159;51.652;4.864;2022-11-20T01:36:36;8.63;;;3.17;;
71351;SDS011;59159;51.652;4.864;2022-11-20T01:39:04;6.97;;;3.25;;
71351;SDS011;59159;51.652;4.864;2022-11-20T01:41:31;6.55;;;2.72;;
71351;SDS011;59159;51.652;4.864;2022-11-20T01:44:16;7.20;;;2.73;;
71351;SDS011;59159;51.652;4.864;2022-11-20T01:49:25;6.63;;;2.60;;
71351;SDS011;59159;51.652;4.864;2022-11-20T01:51:54;7.27;;;3.40;;
71351;SDS011;59159;51.652;4.864;2022-11-20T01:54:26;6.60;;;3.20;;
71351;SDS011;59159;51.652;4.864;2022-11-20T01:56:54;6.13;;;2.70;;
71351;SDS011;59159;51.652;4.864;2022-11-20T01:59:22;6.57;;;2.78;;
71351;SDS011;59159;51.652;4.864;2022-11-20T02:01:49;6.87;;;3.03;;
71351;SDS011;59159;51.652;4.864;2022-11-20T02:04:15;5.93;;;2.80;;
71351;SDS011;59159;51.652;4.864;2022-11-20T02:06:43;6.57;;;2.53;;
71351;SDS011;59159;51.652;4.864;2022-11-20T02:09:10;6.23;;;2.70;;
71351;SDS011;59159;51.652;4.864;2022-11-20T02:11:36;7.88;;;2.88;;
71351;SDS011;59159;51.652;4.864;2022-11-20T02:14:02;7.97;;;3.15;;
71351;SDS011;59159;51.652;4.864;2022-11-20T02:16:29;6.77;;;3.00;;
71351;SDS011;59159;51.652;4.864;2022-11-20T02:18:57;6.93;;;2.63;;
71351;SDS011;59159;51.652;4.864;2022-11-20T02:23:58;7.32;;;3.65;;
71351;SDS011;59159;51.652;4.864;2022-11-20T02:26:26;7.10;;;3.20;;
71351;SDS011;59159;51.652;4.864;2022-11-20T02:28:53;6.90;;;2.90;;
71351;SDS011;59159;51.652;4.864;2022-11-20T02:31:20;6.63;;;3.13;;
71351;SDS011;59159;51.652;4.864;2022-11-20T02:33:46;7.03;;;2.93;;
71351;SDS011;59159;51.652;4.864;2022-11-20T02:36:13;7.28;;;2.97;;
71351;SDS011;59159;51.652;4.864;2022-11-20T02:38:40;8.60;;;3.08;;
71351;SDS011;59159;51.652;4.864;2022-11-20T02:41:07;8.63;;;3.03;;
71351;SDS011;59159;51.652;4.864;2022-11-20T02:43:33;6.25;;;2.50;;
71351;SDS011;59159;51.652;4.864;2022-11-20T02:45:58;6.47;;;2.88;;
71351;SDS011;59159;51.652;4.864;2022-11-20T02:48:24;7.20;;;2.88;;
71351;SDS011;59159;51.652;4.864;2022-11-20T02:50:50;6.83;;;3.07;;
71351;SDS011;59159;51.652;4.864;2022-11-20T02:53:16;8.00;;;3.40;;
71351;SDS011;59159;51.652;4.864;2022-11-20T02:55:42;7.03;;;3.00;;
71351;SDS011;59159;51.652;4.864;2022-11-20T02:58:08;7.27;;;3.03;;
71351;SDS011;59159;51.652;4.864;2022-11-20T03:00:34;7.90;;;3.75;;
71351;SDS011;59159;51.652;4.864;2022-11-20T03:03:01;7.32;;;3.20;;
71351;SDS011;59159;51.652;4.864;2022-11-20T03:05:26;7.77;;;2.80;;
71351;SDS011;59159;51.652;4.864;2022-11-20T03:07:52;5.80;;;2.28;;
71351;SDS011;59159;51.652;4.864;2022-11-20T03:10:18;7.88;;;3.25;;
71351;SDS011;59159;51.652;4.864;2022-11-20T03:12:44;6.68;;;3.00;;
71351;SDS011;59159;51.652;4.864;2022-11-20T03:15:10;6.63;;;2.87;;
71351;SDS011;59159;51.652;4.864;2022-11-20T03:17:36;6.50;;;2.58;;
71351;SDS011;59159;51.652;4.864;2022-11-20T03:20:02;6.55;;;2.72;;
71351;SDS011;59159;51.652;4.864;2022-11-20T03:22:29;7.37;;;2.93;;
71351;SDS011;59159;51.652;4.864;2022-11-20T03:24:55;7.28;;;3.03;;
71351;SDS011;59159;51.652;4.864;2022-11-20T03:27:21;7.45;;;3.20;;
71351;SDS011;59159;51.652;4.864;2022-11-20T03:29:49;6.93;;;2.90;;
71351;SDS011;59159;51.652;4.864;2022-11-20T03:32:15;7.20;;;3.00;;
71351;SDS011;59159;51.652;4.864;2022-11-20T03:34:41;6.43;;;2.95;;
71351;SDS011;59159;51.652;4.864;2022-11-20T03:37:06;7.43;;;2.85;;
71351;SDS011;59159;51.652;4.864;2022-11-20T03:39:32;7.13;;;3.00;;
71351;SDS011;59159;51.652;4.864;2022-11-20T03:41:58;8.40;;;3.30;;
71351;SDS011;59159;51.652;4.864;2022-11-20T03:44:24;6.55;;;3.00;;
71351;SDS011;59159;51.652;4.864;2022-11-20T03:46:50;6.57;;;3.00;;
71351;SDS011;59159;51.652;4.864;2022-11-20T03:49:17;7.43;;;3.08;;
71351;SDS011;59159;51.652;4.864;2022-11-20T03:51:43;7.57;;;3.13;;
71351;SDS011;59159;51.652;4.864;2022-11-20T03:54:09;7.30;;;2.80;;
71351;SDS011;59159;51.652;4.864;2022-11-20T03:56:36;6.20;;;2.90;;
71351;SDS011;59159;51.652;4.864;2022-11-20T03:59:03;7.72;;;3.00;;
71351;SDS011;59159;51.652;4.864;2022-11-20T04:01:30;7.72;;;3.40;;
71351;SDS011;59159;51.652;4.864;2022-11-20T04:03:56;6.83;;;3.50;;
71351;SDS011;59159;51.652;4.864;2022-11-20T04:06:23;7.57;;;3.17;;
71351;SDS011;59159;51.652;4.864;2022-11-20T04:08:49;7.40;;;3.03;;
71351;SDS011;59159;51.652;4.864;2022-11-20T04:11:20;6.90;;;3.30;;
71351;SDS011;59159;51.652;4.864;2022-11-20T04:13:47;7.30;;;3.10;;
71351;SDS011;59159;51.652;4.864;2022-11-20T04:16:14;6.55;;;2.60;;
71351;SDS011;59159;51.652;4.864;2022-11-20T04:18:40;7.57;;;2.87;;
71351;SDS011;59159;51.652;4.864;2022-11-20T04:21:06;5.97;;;2.63;;
71351;SDS011;59159;51.652;4.864;2022-11-20T04:23:32;6.20;;;2.90;;
71351;SDS011;59159;51.652;4.864;2022-11-20T04:26:05;6.53;;;2.70;;
71351;SDS011;59159;51.652;4.864;2022-11-20T04:28:32;7.03;;;3.00;;
71351;SDS011;59159;51.652;4.864;2022-11-20T04:31:02;6.40;;;2.80;;
71351;SDS011;59159;51.652;4.864;2022-11-20T04:33:28;6.68;;;2.83;;
71351;SDS011;59159;51.652;4.864;2022-11-20T04:35:54;6.43;;;2.80;;
71351;SDS011;59159;51.652;4.864;2022-11-20T04:38:20;7.60;;;3.47;;
71351;SDS011;59159;51.652;4.864;2022-11-20T04:40:46;7.15;;;3.42;;
71351;SDS011;59159;51.652;4.864;2022-11-20T04:43:12;8.60;;;2.93;;
71351;SDS011;59159;51.652;4.864;2022-11-20T04:45:38;7.78;;;3.10;;
71351;SDS011;59159;51.652;4.864;2022-11-20T04:48:04;6.82;;;3.15;;
71351;SDS011;59159;51.652;4.864;2022-11-20T04:50:30;7.50;;;2.90;;
71351;SDS011;59159;51.652;4.864;2022-11-20T04:52:56;6.80;;;3.07;;
71351;SDS011;59159;51.652;4.864;2022-11-20T04:55:22;6.97;;;2.70;;
71351;SDS011;59159;51.652;4.864;2022-11-20T04:57:49;6.00;;;3.10;;
71351;SDS011;59159;51.652;4.864;2022-11-20T05:00:16;7.40;;;3.00;;
71351;SDS011;59159;51.652;4.864;2022-11-20T05:02:42;7.53;;;3.00;;
71351;SDS011;59159;51.652;4.864;2022-11-20T05:05:08;7.10;;;2.55;;
71351;SDS011;59159;51.652;4.864;2022-11-20T05:07:34;7.23;;;3.30;;
71351;SDS011;59159;51.652;4.864;2022-11-20T05:10:00;6.93;;;3.15;;
71351;SDS011;59159;51.652;4.864;2022-11-20T05:12:26;7.45;;;3.35;;
71351;SDS011;59159;51.652;4.864;2022-11-20T05:14:53;6.63;;;3.25;;
71351;SDS011;59159;51.652;4.864;2022-11-20T05:17:19;6.50;;;3.10;;
71351;SDS011;59159;51.652;4.864;2022-11-20T05:19:45;6.22;;;2.90;;
71351;SDS011;59159;51.652;4.864;2022-11-20T05:22:11;6.50;;;3.10;;
71351;SDS011;59159;51.652;4.864;2022-11-20T05:24:37;7.83;;;2.97;;
71351;SDS011;59159;51.652;4.864;2022-11-20T05:27:03;6.45;;;3.10;;
71351;SDS011;59159;51.652;4.864;2022-11-20T05:29:29;7.05;;;3.08;;
71351;SDS011;59159;51.652;4.864;2022-11-20T05:31:55;6.70;;;3.30;;
71351;SDS011;59159;51.652;4.864;2022-11-20T05:34:21;8.07;;;3.10;;
71351;SDS011;59159;51.652;4.864;2022-11-20T05:36:47;7.20;;;2.85;;
71351;SDS011;59159;51.652;4.864;2022-11-20T05:39:13;7.30;;;3.22;;
71351;SDS011;59159;51.652;4.864;2022-11-20T05:41:39;7.40;;;2.80;;
71351;SDS011;59159;51.652;4.864;2022-11-20T05:44:05;6.93;;;3.10;;
71351;SDS011;59159;51.652;4.864;2022-11-20T05:46:31;7.57;;;3.35;;
71351;SDS011;59159;51.652;4.864;2022-11-20T05:48:57;6.60;;;2.90;;
71351;SDS011;59159;51.652;4.864;2022-11-20T05:51:23;6.55;;;3.05;;
71351;SDS011;59159;51.652;4.864;2022-11-20T05:53:50;6.45;;;2.63;;
71351;SDS011;59159;51.652;4.864;2022-11-20T05:56:17;7.00;;;2.87;;
71351;SDS011;59159;51.652;4.864;2022-11-20T05:58:43;7.82;;;2.88;;
71351;SDS011;59159;51.652;4.864;2022-11-20T06:03:36;6.93;;;3.20;;
71351;SDS011;59159;51.652;4.864;2022-11-20T06:06:02;6.97;;;2.80;;
71351;SDS011;59159;51.652;4.864;2022-11-20T06:08:29;7.68;;;2.88;;
71351;SDS011;59159;51.652;4.864;2022-11-20T06:10:55;7.78;;;2.90;;
71351;SDS011;59159;51.652;4.864;2022-11-20T06:13:21;8.03;;;2.97;;
71351;SDS011;59159;51.652;4.864;2022-11-20T06:15:51;7.47;;;3.53;;
71351;SDS011;59159;51.652;4.864;2022-11-20T06:18:17;7.95;;;2.88;;
71351;SDS011;59159;51.652;4.864;2022-11-20T06:20:43;7.17;;;3.10;;
71351;SDS011;59159;51.652;4.864;2022-11-20T06:23:09;6.45;;;2.90;;
71351;SDS011;59159;51.652;4.864;2022-11-20T06:25:38;6.35;;;2.40;;
71351;SDS011;59159;51.652;4.864;2022-11-20T06:28:04;5.95;;;2.38;;
71351;SDS011;59159;51.652;4.864;2022-11-20T06:30:30;5.97;;;2.57;;
71351;SDS011;59159;51.652;4.864;2022-11-20T06:32:56;6.13;;;2.70;;
71351;SDS011;59159;51.652;4.864;2022-11-20T06:35:22;6.93;;;2.72;;
71351;SDS011;59159;51.652;4.864;2022-11-20T06:37:48;6.00;;;2.30;;
71351;SDS011;59159;51.652;4.864;2022-11-20T06:40:14;7.53;;;2.92;;
71351;SDS011;59159;51.652;4.864;2022-11-20T06:42:40;6.28;;;2.58;;
71351;SDS011;59159;51.652;4.864;2022-11-20T06:45:06;6.20;;;2.60;;
71351;SDS011;59159;51.652;4.864;2022-11-20T06:47:32;5.97;;;2.30;;
71351;SDS011;59159;51.652;4.864;2022-11-20T06:49:58;6.38;;;2.75;;
71351;SDS011;59159;51.652;4.864;2022-11-20T06:52:24;5.85;;;2.60;;
71351;SDS011;59159;51.652;4.864;2022-11-20T06:54:50;6.63;;;2.70;;
71351;SDS011;59159;51.652;4.864;2022-11-20T06:57:16;6.30;;;2.65;;
71351;SDS011;59159;51.652;4.864;2022-11-20T06:59:42;6.72;;;2.65;;
71351;SDS011;59159;51.652;4.864;2022-11-20T07:02:09;6.50;;;2.90;;
71351;SDS011;59159;51.652;4.864;2022-11-20T07:04:36;6.07;;;2.55;;
71351;SDS011;59159;51.652;4.864;2022-11-20T07:07:02;6.38;;;2.70;;
71351;SDS011;59159;51.652;4.864;2022-11-20T07:09:28;6.50;;;2.83;;
71351;SDS011;59159;51.652;4.864;2022-11-20T07:11:54;6.10;;;2.85;;
71351;SDS011;59159;51.652;4.864;2022-11-20T07:14:20;5.88;;;2.60;;
71351;SDS011;59159;51.652;4.864;2022-11-20T07:16:46;6.68;;;2.75;;
71351;SDS011;59159;51.652;4.864;2022-11-20T07:19:12;6.20;;;2.40;;
71351;SDS011;59159;51.652;4.864;2022-11-20T07:21:38;6.28;;;2.70;;
71351;SDS011;59159;51.652;4.864;2022-11-20T07:24:04;6.10;;;2.67;;
71351;SDS011;59159;51.652;4.864;2022-11-20T07:26:30;6.17;;;2.70;;
71351;SDS011;59159;51.652;4.864;2022-11-20T07:28:56;6.78;;;2.60;;
71351;SDS011;59159;51.652;4.864;2022-11-20T07:31:22;6.22;;;2.58;;
71351;SDS011;59159;51.652;4.864;2022-11-20T07:33:48;6.27;;;2.77;;
71351;SDS011;59159;51.652;4.864;2022-11-20T07:36:14;5.70;;;2.30;;
71351;SDS011;59159;51.652;4.864;2022-11-20T07:38:40;6.97;;;2.58;;
71351;SDS011;59159;51.652;4.864;2022-11-20T07:41:06;6.53;;;2.90;;
71351;SDS011;59159;51.652;4.864;2022-11-20T07:43:32;6.70;;;2.70;;
71351;SDS011;59159;51.652;4.864;2022-11-20T07:45:58;6.07;;;2.75;;
71351;SDS011;59159;51.652;4.864;2022-11-20T07:48:28;8.32;;;2.72;;
71351;SDS011;59159;51.652;4.864;2022-11-20T07:50:57;6.57;;;2.90;;
71351;SDS011;59159;51.652;4.864;2022-11-20T07:53:24;6.53;;;3.08;;
71351;SDS011;59159;51.652;4.864;2022-11-20T07:55:50;6.20;;;2.83;;
71351;SDS011;59159;51.652;4.864;2022-11-20T07:58:19;6.33;;;2.83;;
71351;SDS011;59159;51.652;4.864;2022-11-20T08:00:45;6.40;;;2.65;;
71351;SDS011;59159;51.652;4.864;2022-11-20T08:03:11;6.40;;;2.65;;
71351;SDS011;59159;51.652;4.864;2022-11-20T08:05:37;6.47;;;2.85;;
71351;SDS011;59159;51.652;4.864;2022-11-20T08:08:03;5.90;;;2.40;;
71351;SDS011;59159;51.652;4.864;2022-11-20T08:10:29;6.15;;;2.88;;
71351;SDS011;59159;51.652;4.864;2022-11-20T08:12:55;6.95;;;2.58;;
71351;SDS011;59159;51.652;4.864;2022-11-20T08:15:40;9.23;;;4.97;;
71351;SDS011;59159;51.652;4.864;2022-11-20T08:18:07;9.57;;;4.82;;
71351;SDS011;59159;51.652;4.864;2022-11-20T08:20:34;8.05;;;4.20;;
71351;SDS011;59159;51.652;4.864;2022-11-20T08:23:00;8.73;;;3.60;;
71351;SDS011;59159;51.652;4.864;2022-11-20T08:25:27;11.32;;;4.75;;
71351;SDS011;59159;51.652;4.864;2022-11-20T08:27:53;21.13;;;6.75;;
71351;SDS011;59159;51.652;4.864;2022-11-20T08:30:21;16.92;;;6.40;;
71351;SDS011;59159;51.652;4.864;2022-11-20T08:32:46;15.57;;;5.70;;
71351;SDS011;59159;51.652;4.864;2022-11-20T08:35:12;15.82;;;5.00;;
71351;SDS011;59159;51.652;4.864;2022-11-20T08:37:38;13.30;;;4.85;;
71351;SDS011;59159;51.652;4.864;2022-11-20T08:40:07;11.60;;;4.80;;
71351;SDS011;59159;51.652;4.864;2022-11-20T08:42:33;11.75;;;4.60;;
71351;SDS011;59159;51.652;4.864;2022-11-20T08:44:59;11.75;;;4.45;;
71351;SDS011;59159;51.652;4.864;2022-11-20T08:47:25;14.60;;;4.60;;
71351;SDS011;59159;51.652;4.864;2022-11-20T08:49:51;10.95;;;3.90;;
71351;SDS011;59159;51.652;4.864;2022-11-20T08:52:17;11.68;;;4.60;;
71351;SDS011;59159;51.652;4.864;2022-11-20T08:54:43;11.85;;;4.68;;
71351;SDS011;59159;51.652;4.864;2022-11-20T08:57:09;11.30;;;4.00;;
71351;SDS011;59159;51.652;4.864;2022-11-20T08:59:35;9.25;;;3.75;;
71351;SDS011;59159;51.652;4.864;2022-11-20T09:02:01;10.52;;;3.53;;
71351;SDS011;59159;51.652;4.864;2022-11-20T09:04:27;10.60;;;3.73;;
71351;SDS011;59159;51.652;4.864;2022-11-20T09:06:53;10.80;;;4.20;;
71351;SDS011;59159;51.652;4.864;2022-11-20T09:09:19;9.13;;;3.40;;
71351;SDS011;59159;51.652;4.864;2022-11-20T09:11:45;11.70;;;3.77;;
71351;SDS011;59159;51.652;4.864;2022-11-20T09:14:11;10.68;;;3.47;;
71351;SDS011;59159;51.652;4.864;2022-11-20T09:16:37;8.45;;;3.53;;
71351;SDS011;59159;51.652;4.864;2022-11-20T09:19:03;12.40;;;3.60;;
71351;SDS011;59159;51.652;4.864;2022-11-20T09:21:29;10.27;;;4.33;;
71351;SDS011;59159;51.652;4.864;2022-11-20T09:23:55;9.05;;;3.78;;
71351;SDS011;59159;51.652;4.864;2022-11-20T09:26:20;9.02;;;3.35;;
71351;SDS011;59159;51.652;4.864;2022-11-20T09:28:46;7.83;;;3.43;;
71351;SDS011;59159;51.652;4.864;2022-11-20T09:31:30;6.85;;;3.10;;
71351;SDS011;59159;51.652;4.864;2022-11-20T09:33:56;8.60;;;3.63;;
71351;SDS011;59159;51.652;4.864;2022-11-20T09:36:22;8.07;;;3.40;;
71351;SDS011;59159;51.652;4.864;2022-11-20T09:38:48;9.52;;;4.10;;
71351;SDS011;59159;51.652;4.864;2022-11-20T09:46:58;8.60;;;3.30;;
71351;SDS011;59159;51.652;4.864;2022-11-20T09:49:32;8.23;;;3.53;;
71351;SDS011;59159;51.652;4.864;2022-11-20T09:54:31;7.63;;;2.90;;
71351;SDS011;59159;51.652;4.864;2022-11-20T09:57:05;8.77;;;3.58;;
71351;SDS011;59159;51.652;4.864;2022-11-20T09:59:41;8.10;;;3.03;;
71351;SDS011;59159;51.652;4.864;2022-11-20T10:02:14;9.70;;;3.23;;
71351;SDS011;59159;51.652;4.864;2022-11-20T10:04:47;8.45;;;3.60;;
71351;SDS011;59159;51.652;4.864;2022-11-20T10:07:16;8.63;;;3.20;;
71351;SDS011;59159;51.652;4.864;2022-11-20T10:09:46;7.97;;;3.30;;
71351;SDS011;59159;51.652;4.864;2022-11-20T10:12:35;7.73;;;3.10;;
71351;SDS011;59159;51.652;4.864;2022-11-20T10:17:52;8.43;;;3.20;;
71351;SDS011;59159;51.652;4.864;2022-11-20T10:28:17;9.23;;;3.63;;
71351;SDS011;59159;51.652;4.864;2022-11-20T10:30:55;8.43;;;3.47;;
71351;SDS011;59159;51.652;4.864;2022-11-20T10:33:23;8.40;;;3.25;;
71351;SDS011;59159;51.652;4.864;2022-11-20T10:35:55;8.80;;;3.90;;
71351;SDS011;59159;51.652;4.864;2022-11-20T10:38:25;8.00;;;3.40;;
71351;SDS011;59159;51.652;4.864;2022-11-20T10:40:56;8.77;;;3.40;;
71351;SDS011;59159;51.652;4.864;2022-11-20T10:43:42;9.57;;;3.85;;
71351;SDS011;59159;51.652;4.864;2022-11-20T10:46:10;8.53;;;3.60;;
71351;SDS011;59159;51.652;4.864;2022-11-20T10:48:39;8.38;;;3.45;;
71351;SDS011;59159;51.652;4.864;2022-11-20T10:56:46;13.63;;;3.72;;
71351;SDS011;59159;51.652;4.864;2022-11-20T11:01:39;8.43;;;3.40;;
71351;SDS011;59159;51.652;4.864;2022-11-20T11:04:20;12.13;;;3.37;;
71351;SDS011;59159;51.652;4.864;2022-11-20T11:06:49;7.95;;;3.28;;
71351;SDS011;59159;51.652;4.864;2022-11-20T11:09:17;7.82;;;3.30;;
71351;SDS011;59159;51.652;4.864;2022-11-20T11:11:45;8.60;;;3.07;;
71351;SDS011;59159;51.652;4.864;2022-11-20T11:14:12;8.13;;;3.28;;
71351;SDS011;59159;51.652;4.864;2022-11-20T11:16:51;8.73;;;3.80;;
71351;SDS011;59159;51.652;4.864;2022-11-20T11:19:17;9.27;;;4.00;;
71351;SDS011;59159;51.652;4.864;2022-11-20T11:21:47;9.35;;;4.22;;
71351;SDS011;59159;51.652;4.864;2022-11-20T11:24:24;9.20;;;4.13;;
71351;SDS011;59159;51.652;4.864;2022-11-20T11:27:03;9.57;;;4.20;;
71351;SDS011;59159;51.652;4.864;2022-11-20T11:29:31;9.07;;;4.33;;
71351;SDS011;59159;51.652;4.864;2022-11-20T11:32:08;9.95;;;4.28;;
71351;SDS011;59159;51.652;4.864;2022-11-20T11:34:34;10.75;;;4.43;;
71351;SDS011;59159;51.652;4.864;2022-11-20T11:37:00;12.13;;;5.23;;
71351;SDS011;59159;51.652;4.864;2022-11-20T11:39:30;11.05;;;5.13;;
71351;SDS011;59159;51.652;4.864;2022-11-20T11:41:57;14.55;;;5.07;;
71351;SDS011;59159;51.652;4.864;2022-11-20T11:44:28;13.93;;;5.13;;
71351;SDS011;59159;51.652;4.864;2022-11-20T11:49:46;11.57;;;5.65;;
71351;SDS011;59159;51.652;4.864;2022-11-20T11:52:18;10.95;;;5.53;;
71351;SDS011;59159;51.652;4.864;2022-11-20T11:54:53;10.73;;;4.70;;
71351;SDS011;59159;51.652;4.864;2022-11-20T11:59:54;10.20;;;4.55;;
71351;SDS011;59159;51.652;4.864;2022-11-20T12:02:32;13.47;;;5.30;;
71351;SDS011;59159;51.652;4.864;2022-11-20T12:05:03;10.43;;;5.40;;
71351;SDS011;59159;51.652;4.864;2022-11-20T12:10:00;12.80;;;5.33;;
71351;SDS011;59159;51.652;4.864;2022-11-20T12:12:29;11.77;;;4.97;;
71351;SDS011;59159;51.652;4.864;2022-11-20T12:14:57;12.68;;;5.32;;
71351;SDS011;59159;51.652;4.864;2022-11-20T12:17:24;10.88;;;4.85;;
71351;SDS011;59159;51.652;4.864;2022-11-20T12:19:50;10.83;;;5.20;;
71351;SDS011;59159;51.652;4.864;2022-11-20T12:37:46;13.55;;;5.25;;
71351;SDS011;59159;51.652;4.864;2022-11-20T12:40:22;10.80;;;4.97;;
71351;SDS011;59159;51.652;4.864;2022-11-20T12:42:55;9.82;;;4.50;;
71351;SDS011;59159;51.652;4.864;2022-11-20T13:01:24;14.47;;;6.90;;
71351;SDS011;59159;51.652;4.864;2022-11-20T13:03:57;13.43;;;5.55;;
71351;SDS011;59159;51.652;4.864;2022-11-20T13:06:26;11.43;;;5.25;;
71351;SDS011;59159;51.652;4.864;2022-11-20T13:08:54;15.48;;;5.88;;
71351;SDS011;59159;51.652;4.864;2022-11-20T13:11:24;13.93;;;5.73;;
71351;SDS011;59159;51.652;4.864;2022-11-20T13:19:21;16.07;;;6.77;;
71351;SDS011;59159;51.652;4.864;2022-11-20T13:21:48;13.90;;;6.93;;
71351;SDS011;59159;51.652;4.864;2022-11-20T13:29:32;13.60;;;6.35;;
71351;SDS011;59159;51.652;4.864;2022-11-20T13:34:50;15.43;;;6.43;;
71351;SDS011;59159;51.652;4.864;2022-11-20T13:37:27;12.63;;;5.40;;
71351;SDS011;59159;51.652;4.864;2022-11-20T13:40:04;13.18;;;5.35;;
71351;SDS011;59159;51.652;4.864;2022-11-20T13:42:35;12.63;;;5.78;;
71351;SDS011;59159;51.652;4.864;2022-11-20T13:45:02;12.73;;;4.93;;
71351;SDS011;59159;51.652;4.864;2022-11-20T13:47:33;12.73;;;4.93;;
71351;SDS011;59159;51.652;4.864;2022-11-20T13:50:02;12.82;;;5.85;;
71351;SDS011;59159;51.652;4.864;2022-11-20T13:55:19;13.20;;;5.82;;
71351;SDS011;59159;51.652;4.864;2022-11-20T14:00:15;11.27;;;4.85;;
71351;SDS011;59159;51.652;4.864;2022-11-20T14:02:47;12.57;;;5.10;;
71351;SDS011;59159;51.652;4.864;2022-11-20T14:05:19;13.68;;;5.30;;
71351;SDS011;59159;51.652;4.864;2022-11-20T14:07:45;12.98;;;5.13;;
71351;SDS011;59159;51.652;4.864;2022-11-20T14:10:22;12.27;;;5.07;;
71351;SDS011;59159;51.652;4.864;2022-11-20T14:12:48;13.88;;;5.40;;
71351;SDS011;59159;51.652;4.864;2022-11-20T14:17:54;11.13;;;5.07;;
71351;SDS011;59159;51.652;4.864;2022-11-20T14:20:20;12.57;;;4.50;;
71351;SDS011;59159;51.652;4.864;2022-11-20T14:22:51;10.38;;;5.03;;
71351;SDS011;59159;51.652;4.864;2022-11-20T14:25:22;13.32;;;5.00;;
71351;SDS011;59159;51.652;4.864;2022-11-20T14:27:52;12.00;;;5.47;;
71351;SDS011;59159;51.652;4.864;2022-11-20T14:30:19;12.10;;;5.07;;
71351;SDS011;59159;51.652;4.864;2022-11-20T14:32:46;11.27;;;5.07;;
71351;SDS011;59159;51.652;4.864;2022-11-20T14:35:26;11.23;;;4.90;;
71351;SDS011;59159;51.652;4.864;2022-11-20T14:37:52;10.70;;;5.13;;
71351;SDS011;59159;51.652;4.864;2022-11-20T14:40:23;11.95;;;4.63;;
71351;SDS011;59159;51.652;4.864;2022-11-20T14:42:49;12.33;;;4.97;;
71351;SDS011;59159;51.652;4.864;2022-11-20T14:45:15;13.30;;;4.97;;
71351;SDS011;59159;51.652;4.864;2022-11-20T14:47:42;10.18;;;4.85;;
71351;SDS011;59159;51.652;4.864;2022-11-20T14:50:19;11.00;;;4.68;;
71351;SDS011;59159;51.652;4.864;2022-11-20T14:53:00;11.83;;;5.47;;
71351;SDS011;59159;51.652;4.864;2022-11-20T14:55:36;20.08;;;5.18;;
71351;SDS011;59159;51.652;4.864;2022-11-20T14:58:04;12.55;;;4.70;;
71351;SDS011;59159;51.652;4.864;2022-11-20T15:00:33;10.83;;;4.40;;
71351;SDS011;59159;51.652;4.864;2022-11-20T15:03:00;12.80;;;4.57;;
71351;SDS011;59159;51.652;4.864;2022-11-20T15:05:44;10.52;;;4.28;;
71351;SDS011;59159;51.652;4.864;2022-11-20T15:08:10;11.90;;;4.67;;
71351;SDS011;59159;51.652;4.864;2022-11-20T15:10:43;10.35;;;5.03;;
71351;SDS011;59159;51.652;4.864;2022-11-20T15:13:30;17.58;;;5.05;;
71351;SDS011;59159;51.652;4.864;2022-11-20T15:15:57;11.48;;;5.00;;
71351;SDS011;59159;51.652;4.864;2022-11-20T15:18:28;10.40;;;4.57;;
71351;SDS011;59159;51.652;4.864;2022-11-20T15:20:54;11.63;;;4.50;;
71351;SDS011;59159;51.652;4.864;2022-11-20T15:23:21;11.98;;;4.60;;
71351;SDS011;59159;51.652;4.864;2022-11-20T15:25:54;11.63;;;4.67;;
71351;SDS011;59159;51.652;4.864;2022-11-20T15:28:29;9.60;;;4.78;;
71351;SDS011;59159;51.652;4.864;2022-11-20T15:30:56;9.65;;;4.25;;
71351;SDS011;59159;51.652;4.864;2022-11-20T15:33:22;9.60;;;4.27;;
71351;SDS011;59159;51.652;4.864;2022-11-20T15:35:48;9.00;;;4.07;;
71351;SDS011;59159;51.652;4.864;2022-11-20T15:38:14;10.63;;;4.50;;
71351;SDS011;59159;51.652;4.864;2022-11-20T15:40:40;9.57;;;4.72;;
71351;SDS011;59159;51.652;4.864;2022-11-20T15:43:09;10.40;;;4.70;;
71351;SDS011;59159;51.652;4.864;2022-11-20T15:45:44;12.68;;;4.15;;
71351;SDS011;59159;51.652;4.864;2022-11-20T15:48:12;11.32;;;4.05;;
71351;SDS011;59159;51.652;4.864;2022-11-20T15:53:27;11.10;;;5.28;;
71351;SDS011;59159;51.652;4.864;2022-11-20T15:55:54;13.50;;;5.85;;
71351;SDS011;59159;51.652;4.864;2022-11-20T15:58:20;13.97;;;5.73;;
71351;SDS011;59159;51.652;4.864;2022-11-20T16:00:47;15.52;;;6.93;;
71351;SDS011;59159;51.652;4.864;2022-11-20T16:03:14;13.50;;;6.32;;
71351;SDS011;59159;51.652;4.864;2022-11-20T16:05:41;15.35;;;6.40;;
71351;SDS011;59159;51.652;4.864;2022-11-20T16:08:07;11.57;;;5.07;;
71351;SDS011;59159;51.652;4.864;2022-11-20T16:10:33;12.60;;;6.63;;
71351;SDS011;59159;51.652;4.864;2022-11-20T16:13:02;17.45;;;7.10;;
71351;SDS011;59159;51.652;4.864;2022-11-20T16:15:56;15.40;;;6.33;;
71351;SDS011;59159;51.652;4.864;2022-11-20T16:18:22;13.60;;;6.50;;
71351;SDS011;59159;51.652;4.864;2022-11-20T16:20:50;14.00;;;6.10;;
71351;SDS011;59159;51.652;4.864;2022-11-20T16:23:16;11.97;;;5.53;;
71351;SDS011;59159;51.652;4.864;2022-11-20T16:25:43;10.13;;;5.20;;